sensor_id;sensor_type;location;lat;lon;timestamp;temperature;humidity
12408;DHT22;6268;48.188;17.134;2023-07-02T00:00:10;22.10;99.90
12408;DHT22;6268;48.188;17.134;2023-07-02T00:03:31;22.00;99.90
12408;DHT22;6268;48.188;17.134;2023-07-02T00:06:52;22.10;99.90
12408;DHT22;6268;48.188;17.134;2023-07-02T00:10:14;22.10;99.90
12408;DHT22;6268;48.188;17.134;2023-07-02T00:13:39;21.90;99.90
12408;DHT22;6268;48.188;17.134;2023-07-02T00:17:03;21.90;99.90
12408;DHT22;6268;48.188;17.134;2023-07-02T00:20:24;21.90;99.90
12408;DHT22;6268;48.188;17.134;2023-07-02T00:23:46;21.90;99.90
12408;DHT22;6268;48.188;17.134;2023-07-02T00:27:08;21.90;99.90
12408;DHT22;6268;48.188;17.134;2023-07-02T00:30:29;21.90;99.90
12408;DHT22;6268;48.188;17.134;2023-07-02T00:33:52;21.80;99.90
12408;DHT22;6268;48.188;17.134;2023-07-02T00:37:13;21.90;99.90
12408;DHT22;6268;48.188;17.134;2023-07-02T00:40:34;21.90;99.90
12408;DHT22;6268;48.188;17.134;2023-07-02T00:43:55;21.80;99.90
12408;DHT22;6268;48.188;17.134;2023-07-02T00:47:19;21.80;99.90
12408;DHT22;6268;48.188;17.134;2023-07-02T00:50:42;21.80;99.90
12408;DHT22;6268;48.188;17.134;2023-07-02T00:54:04;21.70;99.90
12408;DHT22;6268;48.188;17.134;2023-07-02T00:57:26;21.80;99.90
12408;DHT22;6268;48.188;17.134;2023-07-02T01:00:48;21.80;99.90
12408;DHT22;6268;48.188;17.134;2023-07-02T01:04:09;21.80;99.90
12408;DHT22;6268;48.188;17.134;2023-07-02T01:07:32;21.70;99.90
12408;DHT22;6268;48.188;17.134;2023-07-02T01:10:53;21.70;99.90
12408;DHT22;6268;48.188;17.134;2023-07-02T01:14:22;21.70;99.90
12408;DHT22;6268;48.188;17.134;2023-07-02T01:17:45;21.70;99.90
12408;DHT22;6268;48.188;17.134;2023-07-02T01:21:08;21.60;99.90
12408;DHT22;6268;48.188;17.134;2023-07-02T01:24:30;21.60;99.90
12408;DHT22;6268;48.188;17.134;2023-07-02T01:27:52;21.60;99.90
12408;DHT22;6268;48.188;17.134;2023-07-02T01:31:15;21.60;99.90
12408;DHT22;6268;48.188;17.134;2023-07-02T01:34:36;21.50;99.90
12408;DHT22;6268;48.188;17.134;2023-07-02T01:37:59;21.50;99.90
12408;DHT22;6268;48.188;17.134;2023-07-02T01:41:20;21.50;99.90
12408;DHT22;6268;48.188;17.134;2023-07-02T01:44:43;21.50;99.90
12408;DHT22;6268;48.188;17.134;2023-07-02T01:48:06;21.50;99.90
12408;DHT22;6268;48.188;17.134;2023-07-02T01:51:27;21.50;99.90
12408;DHT22;6268;48.188;17.134;2023-07-02T01:54:49;21.50;99.90
12408;DHT22;6268;48.188;17.134;2023-07-02T01:58:10;21.50;99.90
12408;DHT22;6268;48.188;17.134;2023-07-02T02:01:32;21.50;99.90
12408;DHT22;6268;48.188;17.134;2023-07-02T02:04:53;21.50;99.90
12408;DHT22;6268;48.188;17.134;2023-07-02T02:08:14;21.50;99.90
12408;DHT22;6268;48.188;17.134;2023-07-02T02:11:39;21.40;99.90
12408;DHT22;6268;48.188;17.134;2023-07-02T02:15:00;21.50;99.90
12408;DHT22;6268;48.188;17.134;2023-07-02T02:18:22;21.50;99.90
12408;DHT22;6268;48.188;17.134;2023-07-02T02:21:43;21.50;99.90
12408;DHT22;6268;48.188;17.134;2023-07-02T02:25:05;21.50;99.90
12408;DHT22;6268;48.188;17.134;2023-07-02T02:28:28;21.50;99.90
12408;DHT22;6268;48.188;17.134;2023-07-02T02:31:49;21.40;99.90
12408;DHT22;6268;48.188;17.134;2023-07-02T02:35:10;21.40;99.90
12408;DHT22;6268;48.188;17.134;2023-07-02T02:38:31;21.40;99.90
12408;DHT22;6268;48.188;17.134;2023-07-02T02:41:52;21.30;99.90
12408;DHT22;6268;48.188;17.134;2023-07-02T02:45:15;21.30;99.90
12408;DHT22;6268;48.188;17.134;2023-07-02T02:48:36;21.30;99.90
12408;DHT22;6268;48.188;17.134;2023-07-02T02:51:58;21.30;99.90
12408;DHT22;6268;48.188;17.134;2023-07-02T02:55:19;21.30;99.90
12408;DHT22;6268;48.188;17.134;2023-07-02T02:58:40;21.30;99.90
12408;DHT22;6268;48.188;17.134;2023-07-02T03:02:03;21.30;99.90
12408;DHT22;6268;48.188;17.134;2023-07-02T03:05:25;21.30;99.90
12408;DHT22;6268;48.188;17.134;2023-07-02T03:08:46;21.30;99.90
12408;DHT22;6268;48.188;17.134;2023-07-02T03:12:08;21.20;99.90
12408;DHT22;6268;48.188;17.134;2023-07-02T03:15:29;21.20;99.90
12408;DHT22;6268;48.188;17.134;2023-07-02T03:18:52;21.20;99.90
12408;DHT22;6268;48.188;17.134;2023-07-02T03:22:13;21.20;99.90
12408;DHT22;6268;48.188;17.134;2023-07-02T03:25:35;21.20;99.90
12408;DHT22;6268;48.188;17.134;2023-07-02T03:28:56;21.20;99.90
12408;DHT22;6268;48.188;17.134;2023-07-02T03:32:17;21.20;99.90
12408;DHT22;6268;48.188;17.134;2023-07-02T03:35:40;21.20;99.90
12408;DHT22;6268;48.188;17.134;2023-07-02T03:39:01;21.20;99.90
12408;DHT22;6268;48.188;17.134;2023-07-02T03:42:22;21.40;99.90
12408;DHT22;6268;48.188;17.134;2023-07-02T03:45:43;21.50;99.90
12408;DHT22;6268;48.188;17.134;2023-07-02T03:49:05;21.60;99.90
12408;DHT22;6268;48.188;17.134;2023-07-02T03:52:27;21.70;99.90
12408;DHT22;6268;48.188;17.134;2023-07-02T03:55:48;21.90;99.90
12408;DHT22;6268;48.188;17.134;2023-07-02T03:59:10;22.10;99.90
12408;DHT22;6268;48.188;17.134;2023-07-02T04:02:32;22.10;99.90
12408;DHT22;6268;48.188;17.134;2023-07-02T04:05:54;22.20;99.90
12408;DHT22;6268;48.188;17.134;2023-07-02T04:09:16;22.50;99.90
12408;DHT22;6268;48.188;17.134;2023-07-02T04:12:37;22.70;99.90
12408;DHT22;6268;48.188;17.134;2023-07-02T04:15:59;22.90;99.90
12408;DHT22;6268;48.188;17.134;2023-07-02T04:19:20;23.10;99.90
12408;DHT22;6268;48.188;17.134;2023-07-02T04:22:41;23.20;99.90
12408;DHT22;6268;48.188;17.134;2023-07-02T04:26:04;23.50;99.90
12408;DHT22;6268;48.188;17.134;2023-07-02T04:29:47;23.80;99.90
12408;DHT22;6268;48.188;17.134;2023-07-02T04:33:09;24.20;99.90
12408;DHT22;6268;48.188;17.134;2023-07-02T04:36:30;24.70;99.90
12408;DHT22;6268;48.188;17.134;2023-07-02T04:39:51;25.00;99.90
12408;DHT22;6268;48.188;17.134;2023-07-02T04:43:14;25.30;99.70
12408;DHT22;6268;48.188;17.134;2023-07-02T04:46:36;25.40;98.80
12408;DHT22;6268;48.188;17.134;2023-07-02T04:49:57;25.70;98.00
12408;DHT22;6268;48.188;17.134;2023-07-02T04:53:19;25.80;97.10
12408;DHT22;6268;48.188;17.134;2023-07-02T04:56:40;26.00;96.30
12408;DHT22;6268;48.188;17.134;2023-07-02T05:00:03;26.30;95.30
12408;DHT22;6268;48.188;17.134;2023-07-02T05:03:25;26.60;93.80
12408;DHT22;6268;48.188;17.134;2023-07-02T05:06:47;26.90;92.60
12408;DHT22;6268;48.188;17.134;2023-07-02T05:10:09;27.30;91.80
12408;DHT22;6268;48.188;17.134;2023-07-02T05:13:30;27.60;90.70
12408;DHT22;6268;48.188;17.134;2023-07-02T05:16:53;27.90;90.00
12408;DHT22;6268;48.188;17.134;2023-07-02T05:20:15;28.10;87.60
12408;DHT22;6268;48.188;17.134;2023-07-02T05:23:36;28.80;85.70
12408;DHT22;6268;48.188;17.134;2023-07-02T05:26:57;29.60;82.00
12408;DHT22;6268;48.188;17.134;2023-07-02T05:30:18;30.00;78.70
12408;DHT22;6268;48.188;17.134;2023-07-02T05:33:41;29.80;78.30
12408;DHT22;6268;48.188;17.134;2023-07-02T05:37:02;30.20;77.00
12408;DHT22;6268;48.188;17.134;2023-07-02T05:40:23;30.60;75.00
12408;DHT22;6268;48.188;17.134;2023-07-02T05:43:46;30.40;74.20
12408;DHT22;6268;48.188;17.134;2023-07-02T05:47:07;29.70;75.10
12408;DHT22;6268;48.188;17.134;2023-07-02T05:50:30;28.90;77.40
12408;DHT22;6268;48.188;17.134;2023-07-02T05:53:52;28.30;80.00
12408;DHT22;6268;48.188;17.134;2023-07-02T05:57:13;27.90;82.00
12408;DHT22;6268;48.188;17.134;2023-07-02T06:00:34;27.70;83.30
12408;DHT22;6268;48.188;17.134;2023-07-02T06:03:55;27.30;84.20
12408;DHT22;6268;48.188;17.134;2023-07-02T06:07:18;26.90;86.80
12408;DHT22;6268;48.188;17.134;2023-07-02T06:10:40;26.80;88.30
12408;DHT22;6268;48.188;17.134;2023-07-02T06:14:01;26.80;90.00
12408;DHT22;6268;48.188;17.134;2023-07-02T06:17:23;26.80;90.30
12408;DHT22;6268;48.188;17.134;2023-07-02T06:20:46;26.60;90.90
12408;DHT22;6268;48.188;17.134;2023-07-02T06:24:09;26.50;91.40
12408;DHT22;6268;48.188;17.134;2023-07-02T06:27:32;26.40;92.50
12408;DHT22;6268;48.188;17.134;2023-07-02T06:30:53;26.20;92.70
12408;DHT22;6268;48.188;17.134;2023-07-02T06:34:14;25.90;93.30
12408;DHT22;6268;48.188;17.134;2023-07-02T06:37:36;25.70;94.50
12408;DHT22;6268;48.188;17.134;2023-07-02T06:40:59;25.40;95.70
12408;DHT22;6268;48.188;17.134;2023-07-02T06:44:20;25.20;97.10
12408;DHT22;6268;48.188;17.134;2023-07-02T06:47:41;25.40;97.40
12408;DHT22;6268;48.188;17.134;2023-07-02T06:51:03;25.20;97.90
12408;DHT22;6268;48.188;17.134;2023-07-02T06:54:24;25.00;99.30
12408;DHT22;6268;48.188;17.134;2023-07-02T06:57:46;25.00;99.90
12408;DHT22;6268;48.188;17.134;2023-07-02T07:01:10;24.90;99.90
12408;DHT22;6268;48.188;17.134;2023-07-02T07:04:31;24.80;99.90
12408;DHT22;6268;48.188;17.134;2023-07-02T07:07:53;24.70;99.90
12408;DHT22;6268;48.188;17.134;2023-07-02T07:11:14;24.60;99.90
12408;DHT22;6268;48.188;17.134;2023-07-02T07:14:37;24.40;99.90
12408;DHT22;6268;48.188;17.134;2023-07-02T07:17:58;24.30;99.90
12408;DHT22;6268;48.188;17.134;2023-07-02T07:21:20;24.20;99.90
12408;DHT22;6268;48.188;17.134;2023-07-02T07:24:41;24.20;99.90
12408;DHT22;6268;48.188;17.134;2023-07-02T07:28:03;24.30;99.90
12408;DHT22;6268;48.188;17.134;2023-07-02T07:31:26;24.30;99.90
12408;DHT22;6268;48.188;17.134;2023-07-02T07:34:48;24.30;99.90
12408;DHT22;6268;48.188;17.134;2023-07-02T07:38:09;24.40;99.90
12408;DHT22;6268;48.188;17.134;2023-07-02T07:41:31;24.40;99.90
12408;DHT22;6268;48.188;17.134;2023-07-02T07:44:52;24.50;99.90
12408;DHT22;6268;48.188;17.134;2023-07-02T07:48:15;24.80;99.90
12408;DHT22;6268;48.188;17.134;2023-07-02T07:51:36;25.00;99.90
12408;DHT22;6268;48.188;17.134;2023-07-02T07:54:57;25.20;99.90
12408;DHT22;6268;48.188;17.134;2023-07-02T07:58:18;25.30;99.90
12408;DHT22;6268;48.188;17.134;2023-07-02T08:01:41;25.40;99.90
12408;DHT22;6268;48.188;17.134;2023-07-02T08:05:05;25.40;99.90
12408;DHT22;6268;48.188;17.134;2023-07-02T08:08:26;25.50;99.90
12408;DHT22;6268;48.188;17.134;2023-07-02T08:11:47;25.50;99.90
12408;DHT22;6268;48.188;17.134;2023-07-02T08:15:08;25.70;99.90
12408;DHT22;6268;48.188;17.134;2023-07-02T08:18:30;26.00;99.90
12408;DHT22;6268;48.188;17.134;2023-07-02T08:21:56;26.40;99.90
12408;DHT22;6268;48.188;17.134;2023-07-02T08:25:18;26.80;99.90
12408;DHT22;6268;48.188;17.134;2023-07-02T08:28:41;27.30;99.90
12408;DHT22;6268;48.188;17.134;2023-07-02T08:32:03;28.00;99.10
12408;DHT22;6268;48.188;17.134;2023-07-02T08:35:24;28.30;96.60
12408;DHT22;6268;48.188;17.134;2023-07-02T08:38:47;28.40;95.90
12408;DHT22;6268;48.188;17.134;2023-07-02T08:42:08;29.20;94.30
12408;DHT22;6268;48.188;17.134;2023-07-02T08:45:30;30.20;92.00
12408;DHT22;6268;48.188;17.134;2023-07-02T08:48:51;30.90;88.50
12408;DHT22;6268;48.188;17.134;2023-07-02T08:52:13;31.30;87.00
12408;DHT22;6268;48.188;17.134;2023-07-02T08:55:35;31.90;81.20
12408;DHT22;6268;48.188;17.134;2023-07-02T08:58:57;32.10;78.80
12408;DHT22;6268;48.188;17.134;2023-07-02T09:02:18;32.50;75.50
12408;DHT22;6268;48.188;17.134;2023-07-02T09:05:54;32.50;74.10
12408;DHT22;6268;48.188;17.134;2023-07-02T09:09:16;31.90;75.00
12408;DHT22;6268;48.188;17.134;2023-07-02T09:12:38;31.20;79.00
12408;DHT22;6268;48.188;17.134;2023-07-02T09:16:00;30.90;78.60
12408;DHT22;6268;48.188;17.134;2023-07-02T09:19:36;30.80;79.70
12408;DHT22;6268;48.188;17.134;2023-07-02T09:23:08;30.90;80.10
12408;DHT22;6268;48.188;17.134;2023-07-02T09:26:42;30.70;79.60
12408;DHT22;6268;48.188;17.134;2023-07-02T09:30:11;30.90;85.50
12408;DHT22;6268;48.188;17.134;2023-07-02T09:33:33;30.90;81.10
12408;DHT22;6268;48.188;17.134;2023-07-02T09:36:55;30.90;78.90
12408;DHT22;6268;48.188;17.134;2023-07-02T09:40:18;30.90;80.00
12408;DHT22;6268;48.188;17.134;2023-07-02T09:43:39;31.00;82.40
12408;DHT22;6268;48.188;17.134;2023-07-02T09:47:04;31.20;78.00
12408;DHT22;6268;48.188;17.134;2023-07-02T09:50:27;31.70;78.00
12408;DHT22;6268;48.188;17.134;2023-07-02T09:53:51;32.10;78.50
12408;DHT22;6268;48.188;17.134;2023-07-02T09:57:13;32.30;73.00
12408;DHT22;6268;48.188;17.134;2023-07-02T10:00:34;31.90;71.50
12408;DHT22;6268;48.188;17.134;2023-07-02T10:04:10;32.00;70.80
12408;DHT22;6268;48.188;17.134;2023-07-02T10:07:32;31.90;70.50
12408;DHT22;6268;48.188;17.134;2023-07-02T10:11:07;31.80;71.80
12408;DHT22;6268;48.188;17.134;2023-07-02T10:14:40;32.00;66.80
12408;DHT22;6268;48.188;17.134;2023-07-02T10:18:05;32.10;66.00
12408;DHT22;6268;48.188;17.134;2023-07-02T10:21:37;32.20;67.00
12408;DHT22;6268;48.188;17.134;2023-07-02T10:25:10;32.00;66.10
12408;DHT22;6268;48.188;17.134;2023-07-02T10:28:43;32.10;68.90
12408;DHT22;6268;48.188;17.134;2023-07-02T10:32:26;32.20;67.50
12408;DHT22;6268;48.188;17.134;2023-07-02T10:35:50;32.30;66.10
12408;DHT22;6268;48.188;17.134;2023-07-02T10:39:11;32.10;66.30
12408;DHT22;6268;48.188;17.134;2023-07-02T10:42:33;31.90;67.10
12408;DHT22;6268;48.188;17.134;2023-07-02T10:46:05;32.10;65.80
12408;DHT22;6268;48.188;17.134;2023-07-02T10:49:31;31.70;69.60
12408;DHT22;6268;48.188;17.134;2023-07-02T10:52:54;31.30;67.30
12408;DHT22;6268;48.188;17.134;2023-07-02T10:56:24;30.50;68.80
12408;DHT22;6268;48.188;17.134;2023-07-02T10:59:48;29.80;70.40
12408;DHT22;6268;48.188;17.134;2023-07-02T11:03:17;29.40;72.50
12408;DHT22;6268;48.188;17.134;2023-07-02T11:06:38;29.20;73.70
12408;DHT22;6268;48.188;17.134;2023-07-02T11:10:01;29.20;75.30
12408;DHT22;6268;48.188;17.134;2023-07-02T11:13:31;28.70;76.60
12408;DHT22;6268;48.188;17.134;2023-07-02T11:17:01;28.40;79.60
12408;DHT22;6268;48.188;17.134;2023-07-02T11:20:22;28.30;80.00
12408;DHT22;6268;48.188;17.134;2023-07-02T11:24:01;28.40;80.60
12408;DHT22;6268;48.188;17.134;2023-07-02T11:27:24;29.00;80.30
12408;DHT22;6268;48.188;17.134;2023-07-02T11:30:46;29.30;83.60
12408;DHT22;6268;48.188;17.134;2023-07-02T11:34:12;29.40;79.40
12408;DHT22;6268;48.188;17.134;2023-07-02T11:37:33;29.50;77.70
12408;DHT22;6268;48.188;17.134;2023-07-02T11:40:54;29.50;77.50
12408;DHT22;6268;48.188;17.134;2023-07-02T11:44:19;29.30;76.90
12408;DHT22;6268;48.188;17.134;2023-07-02T11:47:40;29.30;77.20
12408;DHT22;6268;48.188;17.134;2023-07-02T11:51:01;29.30;78.00
12408;DHT22;6268;48.188;17.134;2023-07-02T11:54:22;29.20;76.30
12408;DHT22;6268;48.188;17.134;2023-07-02T11:57:44;29.00;75.70
12408;DHT22;6268;48.188;17.134;2023-07-02T12:01:06;29.10;77.20
12408;DHT22;6268;48.188;17.134;2023-07-02T12:04:28;29.00;76.20
12408;DHT22;6268;48.188;17.134;2023-07-02T12:07:49;28.70;75.40
12408;DHT22;6268;48.188;17.134;2023-07-02T12:11:11;28.40;76.80
12408;DHT22;6268;48.188;17.134;2023-07-02T12:14:33;28.30;78.00
12408;DHT22;6268;48.188;17.134;2023-07-02T12:17:55;28.20;78.90
12408;DHT22;6268;48.188;17.134;2023-07-02T12:21:16;27.90;80.80
12408;DHT22;6268;48.188;17.134;2023-07-02T12:24:38;27.70;81.60
12408;DHT22;6268;48.188;17.134;2023-07-02T12:27:59;27.60;82.40
12408;DHT22;6268;48.188;17.134;2023-07-02T12:31:20;27.60;82.60
12408;DHT22;6268;48.188;17.134;2023-07-02T12:34:43;27.60;82.70
12408;DHT22;6268;48.188;17.134;2023-07-02T12:38:04;27.60;83.40
12408;DHT22;6268;48.188;17.134;2023-07-02T12:41:26;27.80;82.50
12408;DHT22;6268;48.188;17.134;2023-07-02T12:44:47;27.90;81.80
12408;DHT22;6268;48.188;17.134;2023-07-02T12:48:08;28.20;82.00
12408;DHT22;6268;48.188;17.134;2023-07-02T12:51:31;28.50;81.10
12408;DHT22;6268;48.188;17.134;2023-07-02T12:54:52;28.50;80.80
12408;DHT22;6268;48.188;17.134;2023-07-02T12:58:15;28.40;81.30
12408;DHT22;6268;48.188;17.134;2023-07-02T13:01:36;28.40;79.50
12408;DHT22;6268;48.188;17.134;2023-07-02T13:04:58;28.30;80.30
12408;DHT22;6268;48.188;17.134;2023-07-02T13:08:21;28.30;74.70
12408;DHT22;6268;48.188;17.134;2023-07-02T13:11:42;28.20;75.00
12408;DHT22;6268;48.188;17.134;2023-07-02T13:15:04;28.20;75.00
12408;DHT22;6268;48.188;17.134;2023-07-02T13:18:26;28.20;77.00
12408;DHT22;6268;48.188;17.134;2023-07-02T13:21:47;28.30;75.80
12408;DHT22;6268;48.188;17.134;2023-07-02T13:25:10;28.30;77.10
12408;DHT22;6268;48.188;17.134;2023-07-02T13:28:32;28.30;78.00
12408;DHT22;6268;48.188;17.134;2023-07-02T13:31:53;28.20;78.60
12408;DHT22;6268;48.188;17.134;2023-07-02T13:35:15;28.20;78.00
12408;DHT22;6268;48.188;17.134;2023-07-02T13:38:36;28.30;78.40
12408;DHT22;6268;48.188;17.134;2023-07-02T13:41:59;28.30;77.80
12408;DHT22;6268;48.188;17.134;2023-07-02T13:45:21;28.20;76.50
12408;DHT22;6268;48.188;17.134;2023-07-02T13:48:43;28.10;76.40
12408;DHT22;6268;48.188;17.134;2023-07-02T13:52:05;28.00;75.70
12408;DHT22;6268;48.188;17.134;2023-07-02T13:55:26;28.00;75.70
12408;DHT22;6268;48.188;17.134;2023-07-02T13:59:01;28.00;77.10
12408;DHT22;6268;48.188;17.134;2023-07-02T14:02:24;28.00;75.20
12408;DHT22;6268;48.188;17.134;2023-07-02T14:05:46;27.90;75.30
12408;DHT22;6268;48.188;17.134;2023-07-02T14:09:07;27.80;75.60
12408;DHT22;6268;48.188;17.134;2023-07-02T14:12:29;27.70;76.10
12408;DHT22;6268;48.188;17.134;2023-07-02T14:15:52;27.60;76.10
12408;DHT22;6268;48.188;17.134;2023-07-02T14:19:14;27.60;75.50
12408;DHT22;6268;48.188;17.134;2023-07-02T14:22:36;27.60;76.90
12408;DHT22;6268;48.188;17.134;2023-07-02T14:25:57;27.60;77.60
12408;DHT22;6268;48.188;17.134;2023-07-02T14:29:18;27.50;77.60
12408;DHT22;6268;48.188;17.134;2023-07-02T14:32:42;27.30;77.30
12408;DHT22;6268;48.188;17.134;2023-07-02T14:36:05;27.40;78.90
12408;DHT22;6268;48.188;17.134;2023-07-02T14:39:26;27.30;78.10
12408;DHT22;6268;48.188;17.134;2023-07-02T14:42:47;27.10;78.10
12408;DHT22;6268;48.188;17.134;2023-07-02T14:46:09;27.00;77.40
12408;DHT22;6268;48.188;17.134;2023-07-02T14:49:32;26.80;77.10
12408;DHT22;6268;48.188;17.134;2023-07-02T14:52:53;26.70;77.10
12408;DHT22;6268;48.188;17.134;2023-07-02T14:56:14;26.70;77.60
12408;DHT22;6268;48.188;17.134;2023-07-02T14:59:36;26.70;77.60
12408;DHT22;6268;48.188;17.134;2023-07-02T15:02:57;26.80;78.30
12408;DHT22;6268;48.188;17.134;2023-07-02T15:06:21;26.70;78.10
12408;DHT22;6268;48.188;17.134;2023-07-02T15:09:43;26.70;78.10
12408;DHT22;6268;48.188;17.134;2023-07-02T15:13:06;26.60;78.20
12408;DHT22;6268;48.188;17.134;2023-07-02T15:16:28;26.60;77.80
12408;DHT22;6268;48.188;17.134;2023-07-02T15:19:49;26.50;78.80
12408;DHT22;6268;48.188;17.134;2023-07-02T15:23:13;26.50;78.10
12408;DHT22;6268;48.188;17.134;2023-07-02T15:26:37;26.50;78.00
12408;DHT22;6268;48.188;17.134;2023-07-02T15:29:58;26.50;78.00
12408;DHT22;6268;48.188;17.134;2023-07-02T15:33:20;26.50;75.60
12408;DHT22;6268;48.188;17.134;2023-07-02T15:36:46;26.40;75.10
12408;DHT22;6268;48.188;17.134;2023-07-02T15:40:11;26.30;75.30
12408;DHT22;6268;48.188;17.134;2023-07-02T15:43:33;26.20;76.30
12408;DHT22;6268;48.188;17.134;2023-07-02T15:46:54;26.20;76.60
12408;DHT22;6268;48.188;17.134;2023-07-02T15:50:16;26.20;76.80
12408;DHT22;6268;48.188;17.134;2023-07-02T15:53:40;26.40;78.00
12408;DHT22;6268;48.188;17.134;2023-07-02T15:57:03;26.30;77.10
12408;DHT22;6268;48.188;17.134;2023-07-02T16:00:25;26.20;78.50
12408;DHT22;6268;48.188;17.134;2023-07-02T16:03:47;26.10;78.40
12408;DHT22;6268;48.188;17.134;2023-07-02T16:07:12;25.90;79.70
12408;DHT22;6268;48.188;17.134;2023-07-02T16:10:34;26.00;79.00
12408;DHT22;6268;48.188;17.134;2023-07-02T16:13:57;26.00;78.70
12408;DHT22;6268;48.188;17.134;2023-07-02T16:17:19;26.00;79.60
12408;DHT22;6268;48.188;17.134;2023-07-02T16:20:40;25.90;78.80
12408;DHT22;6268;48.188;17.134;2023-07-02T16:24:04;25.80;78.80
12408;DHT22;6268;48.188;17.134;2023-07-02T16:27:26;25.80;79.00
12408;DHT22;6268;48.188;17.134;2023-07-02T16:30:48;25.70;79.10
12408;DHT22;6268;48.188;17.134;2023-07-02T16:34:12;25.70;79.30
12408;DHT22;6268;48.188;17.134;2023-07-02T16:37:34;25.70;79.50
12408;DHT22;6268;48.188;17.134;2023-07-02T16:40:56;25.80;79.00
12408;DHT22;6268;48.188;17.134;2023-07-02T16:44:19;25.80;78.80
12408;DHT22;6268;48.188;17.134;2023-07-02T16:47:42;25.70;78.00
12408;DHT22;6268;48.188;17.134;2023-07-02T16:51:05;25.70;78.10
12408;DHT22;6268;48.188;17.134;2023-07-02T16:54:27;25.70;77.90
12408;DHT22;6268;48.188;17.134;2023-07-02T16:57:48;25.60;76.30
12408;DHT22;6268;48.188;17.134;2023-07-02T17:01:11;25.50;76.30
12408;DHT22;6268;48.188;17.134;2023-07-02T17:04:35;25.40;77.00
12408;DHT22;6268;48.188;17.134;2023-07-02T17:08:04;25.30;76.50
12408;DHT22;6268;48.188;17.134;2023-07-02T17:11:45;25.20;77.00
12408;DHT22;6268;48.188;17.134;2023-07-02T17:15:10;25.20;77.80
12408;DHT22;6268;48.188;17.134;2023-07-02T17:18:33;25.20;78.30
12408;DHT22;6268;48.188;17.134;2023-07-02T17:21:57;25.30;78.40
12408;DHT22;6268;48.188;17.134;2023-07-02T17:25:20;25.30;79.00
12408;DHT22;6268;48.188;17.134;2023-07-02T17:28:41;25.30;79.20
12408;DHT22;6268;48.188;17.134;2023-07-02T17:32:05;25.30;79.60
12408;DHT22;6268;48.188;17.134;2023-07-02T17:35:28;25.30;80.20
12408;DHT22;6268;48.188;17.134;2023-07-02T17:38:52;25.30;80.80
12408;DHT22;6268;48.188;17.134;2023-07-02T17:42:15;25.30;80.70
12408;DHT22;6268;48.188;17.134;2023-07-02T17:45:37;25.20;81.40
12408;DHT22;6268;48.188;17.134;2023-07-02T17:48:59;25.20;81.70
12408;DHT22;6268;48.188;17.134;2023-07-02T17:52:21;25.20;81.60
12408;DHT22;6268;48.188;17.134;2023-07-02T17:55:48;25.20;82.50
12408;DHT22;6268;48.188;17.134;2023-07-02T17:59:11;25.10;81.80
12408;DHT22;6268;48.188;17.134;2023-07-02T18:02:33;25.10;82.80
12408;DHT22;6268;48.188;17.134;2023-07-02T18:05:55;25.00;82.70
12408;DHT22;6268;48.188;17.134;2023-07-02T18:09:19;25.00;83.00
12408;DHT22;6268;48.188;17.134;2023-07-02T18:12:42;24.90;83.50
12408;DHT22;6268;48.188;17.134;2023-07-02T18:16:04;24.80;83.40
12408;DHT22;6268;48.188;17.134;2023-07-02T18:19:25;24.80;83.90
12408;DHT22;6268;48.188;17.134;2023-07-02T18:22:48;24.70;83.50
12408;DHT22;6268;48.188;17.134;2023-07-02T18:26:09;24.70;84.30
12408;DHT22;6268;48.188;17.134;2023-07-02T18:29:34;24.60;84.80
12408;DHT22;6268;48.188;17.134;2023-07-02T18:32:56;24.60;85.00
12408;DHT22;6268;48.188;17.134;2023-07-02T18:36:18;24.60;85.00
12408;DHT22;6268;48.188;17.134;2023-07-02T18:39:41;24.60;84.50
12408;DHT22;6268;48.188;17.134;2023-07-02T18:43:02;24.40;83.60
12408;DHT22;6268;48.188;17.134;2023-07-02T18:46:25;24.30;84.80
12408;DHT22;6268;48.188;17.134;2023-07-02T18:49:48;24.30;85.60
12408;DHT22;6268;48.188;17.134;2023-07-02T18:53:10;24.30;89.80
12408;DHT22;6268;48.188;17.134;2023-07-02T18:56:32;24.30;88.40
12408;DHT22;6268;48.188;17.134;2023-07-02T18:59:53;24.30;88.60
12408;DHT22;6268;48.188;17.134;2023-07-02T19:03:16;24.20;89.40
12408;DHT22;6268;48.188;17.134;2023-07-02T19:06:38;24.20;90.40
12408;DHT22;6268;48.188;17.134;2023-07-02T19:10:00;24.10;90.60
12408;DHT22;6268;48.188;17.134;2023-07-02T19:13:26;24.00;90.80
12408;DHT22;6268;48.188;17.134;2023-07-02T19:16:48;24.00;90.70
12408;DHT22;6268;48.188;17.134;2023-07-02T19:20:12;23.90;90.50
12408;DHT22;6268;48.188;17.134;2023-07-02T19:23:40;23.90;91.90
12408;DHT22;6268;48.188;17.134;2023-07-02T19:27:05;23.80;92.00
12408;DHT22;6268;48.188;17.134;2023-07-02T19:30:27;23.80;92.20
12408;DHT22;6268;48.188;17.134;2023-07-02T19:33:49;23.70;91.70
12408;DHT22;6268;48.188;17.134;2023-07-02T19:37:16;23.70;92.00
12408;DHT22;6268;48.188;17.134;2023-07-02T19:40:38;23.60;91.90
12408;DHT22;6268;48.188;17.134;2023-07-02T19:43:59;23.60;92.30
12408;DHT22;6268;48.188;17.134;2023-07-02T19:47:22;23.50;92.60
12408;DHT22;6268;48.188;17.134;2023-07-02T19:50:45;23.50;92.50
12408;DHT22;6268;48.188;17.134;2023-07-02T19:54:08;23.40;92.80
12408;DHT22;6268;48.188;17.134;2023-07-02T19:57:32;23.40;92.80
12408;DHT22;6268;48.188;17.134;2023-07-02T20:00:54;23.30;93.00
12408;DHT22;6268;48.188;17.134;2023-07-02T20:04:19;23.20;93.50
12408;DHT22;6268;48.188;17.134;2023-07-02T20:07:41;23.20;93.80
12408;DHT22;6268;48.188;17.134;2023-07-02T20:11:04;23.10;94.00
12408;DHT22;6268;48.188;17.134;2023-07-02T20:14:25;23.00;94.70
12408;DHT22;6268;48.188;17.134;2023-07-02T20:17:47;22.90;95.10
12408;DHT22;6268;48.188;17.134;2023-07-02T20:21:08;22.90;95.30
12408;DHT22;6268;48.188;17.134;2023-07-02T20:24:30;22.90;95.60
12408;DHT22;6268;48.188;17.134;2023-07-02T20:27:56;22.90;96.00
12408;DHT22;6268;48.188;17.134;2023-07-02T20:31:19;22.80;96.30
12408;DHT22;6268;48.188;17.134;2023-07-02T20:34:41;22.70;96.60
12408;DHT22;6268;48.188;17.134;2023-07-02T20:38:08;22.70;97.50
12408;DHT22;6268;48.188;17.134;2023-07-02T20:41:30;22.60;97.40
12408;DHT22;6268;48.188;17.134;2023-07-02T20:44:53;22.60;97.60
12408;DHT22;6268;48.188;17.134;2023-07-02T20:48:15;22.60;97.80
12408;DHT22;6268;48.188;17.134;2023-07-02T20:51:38;22.60;98.00
12408;DHT22;6268;48.188;17.134;2023-07-02T20:54:59;22.50;98.30
12408;DHT22;6268;48.188;17.134;2023-07-02T20:58:22;22.50;98.80
12408;DHT22;6268;48.188;17.134;2023-07-02T21:01:45;22.50;99.00
12408;DHT22;6268;48.188;17.134;2023-07-02T21:05:07;22.40;99.10
12408;DHT22;6268;48.188;17.134;2023-07-02T21:08:32;22.40;99.40
12408;DHT22;6268;48.188;17.134;2023-07-02T21:11:54;22.30;99.70
12408;DHT22;6268;48.188;17.134;2023-07-02T21:15:15;22.20;99.90
12408;DHT22;6268;48.188;17.134;2023-07-02T21:18:38;22.20;99.90